sensor_id;sensor_type;location;lat;lon;timestamp;temperature;humidity
23137;DHT22;11737;50.558;7.258;2022-09-03T00:00:19;15.50;80.90
23137;DHT22;11737;50.558;7.258;2022-09-03T00:03:02;15.40;80.90
23137;DHT22;11737;50.558;7.258;2022-09-03T00:05:46;15.40;79.80
23137;DHT22;11737;50.558;7.258;2022-09-03T00:14:14;15.30;80.30
23137;DHT22;11737;50.558;7.258;2022-09-03T00:16:45;15.30;79.60
23137;DHT22;11737;50.558;7.258;2022-09-03T00:19:17;15.30;80.60
23137;DHT22;11737;50.558;7.258;2022-09-03T00:21:55;15.20;80.90
23137;DHT22;11737;50.558;7.258;2022-09-03T00:24:25;15.10;82.00
23137;DHT22;11737;50.558;7.258;2022-09-03T00:26:56;15.10;81.80
23137;DHT22;11737;50.558;7.258;2022-09-03T00:29:31;15.10;82.40
23137;DHT22;11737;50.558;7.258;2022-09-03T00:32:00;15.10;81.70
23137;DHT22;11737;50.558;7.258;2022-09-03T00:34:36;15.10;81.70
23137;DHT22;11737;50.558;7.258;2022-09-03T00:37:07;15.10;81.60
23137;DHT22;11737;50.558;7.258;2022-09-03T00:39:36;15.10;81.30
23137;DHT22;11737;50.558;7.258;2022-09-03T00:45:02;15.10;81.40
23137;DHT22;11737;50.558;7.258;2022-09-03T00:50:30;15.20;81.80
23137;DHT22;11737;50.558;7.258;2022-09-03T00:56:03;15.10;84.10
23137;DHT22;11737;50.558;7.258;2022-09-03T00:58:44;15.00;83.70
23137;DHT22;11737;50.558;7.258;2022-09-03T01:01:19;15.00;83.30
23137;DHT22;11737;50.558;7.258;2022-09-03T01:09:42;14.80;84.70
23137;DHT22;11737;50.558;7.258;2022-09-03T01:17:50;14.80;85.20
23137;DHT22;11737;50.558;7.258;2022-09-03T01:30:49;14.80;86.20
23137;DHT22;11737;50.558;7.258;2022-09-03T01:33:19;14.80;85.70
23137;DHT22;11737;50.558;7.258;2022-09-03T01:35:52;14.90;85.60
23137;DHT22;11737;50.558;7.258;2022-09-03T01:38:32;14.90;85.70
23137;DHT22;11737;50.558;7.258;2022-09-03T01:41:26;14.90;85.10
23137;DHT22;11737;50.558;7.258;2022-09-03T01:46:51;14.80;86.20
23137;DHT22;11737;50.558;7.258;2022-09-03T01:49:37;14.80;86.60
23137;DHT22;11737;50.558;7.258;2022-09-03T01:52:10;14.70;86.90
23137;DHT22;11737;50.558;7.258;2022-09-03T01:57:47;14.70;86.80
23137;DHT22;11737;50.558;7.258;2022-09-03T02:00:16;14.70;87.70
23137;DHT22;11737;50.558;7.258;2022-09-03T02:02:47;14.70;87.80
23137;DHT22;11737;50.558;7.258;2022-09-03T02:05:24;14.70;87.90
23137;DHT22;11737;50.558;7.258;2022-09-03T02:07:58;14.70;87.50
23137;DHT22;11737;50.558;7.258;2022-09-03T02:10:40;14.60;87.80
23137;DHT22;11737;50.558;7.258;2022-09-03T02:15:50;14.70;88.80
23137;DHT22;11737;50.558;7.258;2022-09-03T02:18:24;14.60;88.20
23137;DHT22;11737;50.558;7.258;2022-09-03T02:20:53;14.60;88.40
23137;DHT22;11737;50.558;7.258;2022-09-03T02:23:22;14.70;88.50
23137;DHT22;11737;50.558;7.258;2022-09-03T02:25:51;14.60;88.80
23137;DHT22;11737;50.558;7.258;2022-09-03T02:28:21;14.70;88.50
23137;DHT22;11737;50.558;7.258;2022-09-03T02:30:51;14.70;88.90
23137;DHT22;11737;50.558;7.258;2022-09-03T02:33:18;14.70;89.40
23137;DHT22;11737;50.558;7.258;2022-09-03T02:35:47;14.80;89.50
23137;DHT22;11737;50.558;7.258;2022-09-03T02:41:02;14.80;89.60
23137;DHT22;11737;50.558;7.258;2022-09-03T02:43:41;14.90;89.60
23137;DHT22;11737;50.558;7.258;2022-09-03T02:46:20;14.90;89.40
23137;DHT22;11737;50.558;7.258;2022-09-03T02:48:47;14.80;89.40
23137;DHT22;11737;50.558;7.258;2022-09-03T02:51:15;14.90;90.10
23137;DHT22;11737;50.558;7.258;2022-09-03T02:53:42;14.80;90.00
23137;DHT22;11737;50.558;7.258;2022-09-03T02:56:11;14.80;90.30
23137;DHT22;11737;50.558;7.258;2022-09-03T02:58:58;14.80;90.40
23137;DHT22;11737;50.558;7.258;2022-09-03T03:01:26;14.90;90.40
23137;DHT22;11737;50.558;7.258;2022-09-03T03:03:53;14.90;90.80
23137;DHT22;11737;50.558;7.258;2022-09-03T03:06:21;14.90;90.30
23137;DHT22;11737;50.558;7.258;2022-09-03T03:08:49;14.90;90.30
23137;DHT22;11737;50.558;7.258;2022-09-03T03:11:18;14.90;90.10
23137;DHT22;11737;50.558;7.258;2022-09-03T03:13:46;14.90;89.60
23137;DHT22;11737;50.558;7.258;2022-09-03T03:16:15;15.00;88.50
23137;DHT22;11737;50.558;7.258;2022-09-03T03:18:44;15.10;89.40
23137;DHT22;11737;50.558;7.258;2022-09-03T03:21:14;15.10;90.00
23137;DHT22;11737;50.558;7.258;2022-09-03T03:23:42;15.10;90.40
23137;DHT22;11737;50.558;7.258;2022-09-03T03:26:13;15.10;90.50
23137;DHT22;11737;50.558;7.258;2022-09-03T03:29:00;15.20;90.40
23137;DHT22;11737;50.558;7.258;2022-09-03T03:31:30;15.20;90.50
23137;DHT22;11737;50.558;7.258;2022-09-03T03:34:00;15.30;90.10
23137;DHT22;11737;50.558;7.258;2022-09-03T03:36:31;15.30;90.00
23137;DHT22;11737;50.558;7.258;2022-09-03T03:39:00;15.40;89.40
23137;DHT22;11737;50.558;7.258;2022-09-03T03:41:33;15.40;90.00
23137;DHT22;11737;50.558;7.258;2022-09-03T03:44:03;15.40;90.00
23137;DHT22;11737;50.558;7.258;2022-09-03T03:46:37;15.40;90.30
23137;DHT22;11737;50.558;7.258;2022-09-03T03:49:02;15.30;90.80
23137;DHT22;11737;50.558;7.258;2022-09-03T03:51:32;15.30;90.80
23137;DHT22;11737;50.558;7.258;2022-09-03T03:54:00;15.30;90.80
23137;DHT22;11737;50.558;7.258;2022-09-03T03:56:28;15.30;91.00
23137;DHT22;11737;50.558;7.258;2022-09-03T03:58:57;15.30;91.20
23137;DHT22;11737;50.558;7.258;2022-09-03T04:01:26;15.40;91.30
23137;DHT22;11737;50.558;7.258;2022-09-03T04:03:55;15.40;90.90
23137;DHT22;11737;50.558;7.258;2022-09-03T04:06:23;15.40;90.80
23137;DHT22;11737;50.558;7.258;2022-09-03T04:08:51;15.40;90.40
23137;DHT22;11737;50.558;7.258;2022-09-03T04:11:21;15.40;90.60
23137;DHT22;11737;50.558;7.258;2022-09-03T04:13:50;15.40;90.70
23137;DHT22;11737;50.558;7.258;2022-09-03T04:16:21;15.30;90.70
23137;DHT22;11737;50.558;7.258;2022-09-03T04:18:49;15.30;90.60
23137;DHT22;11737;50.558;7.258;2022-09-03T04:21:23;15.40;90.60
23137;DHT22;11737;50.558;7.258;2022-09-03T04:23:49;15.40;91.00
23137;DHT22;11737;50.558;7.258;2022-09-03T04:26:19;15.50;90.20
23137;DHT22;11737;50.558;7.258;2022-09-03T04:28:47;15.60;90.30
23137;DHT22;11737;50.558;7.258;2022-09-03T04:31:16;15.60;90.20
23137;DHT22;11737;50.558;7.258;2022-09-03T04:33:44;15.70;90.60
23137;DHT22;11737;50.558;7.258;2022-09-03T04:36:15;15.70;90.20
23137;DHT22;11737;50.558;7.258;2022-09-03T04:38:44;15.80;90.50
23137;DHT22;11737;50.558;7.258;2022-09-03T04:41:14;15.80;90.90
23137;DHT22;11737;50.558;7.258;2022-09-03T04:43:43;15.70;91.00
23137;DHT22;11737;50.558;7.258;2022-09-03T04:46:12;15.70;91.20
23137;DHT22;11737;50.558;7.258;2022-09-03T04:48:41;15.70;91.50
23137;DHT22;11737;50.558;7.258;2022-09-03T04:51:11;15.70;91.50
23137;DHT22;11737;50.558;7.258;2022-09-03T04:53:44;15.70;91.50
23137;DHT22;11737;50.558;7.258;2022-09-03T04:56:14;15.80;91.60
23137;DHT22;11737;50.558;7.258;2022-09-03T04:58:42;15.80;91.60
23137;DHT22;11737;50.558;7.258;2022-09-03T05:01:13;15.80;91.80
23137;DHT22;11737;50.558;7.258;2022-09-03T05:03:40;15.90;91.80
23137;DHT22;11737;50.558;7.258;2022-09-03T05:06:09;15.90;91.80
23137;DHT22;11737;50.558;7.258;2022-09-03T05:08:39;16.00;91.70
23137;DHT22;11737;50.558;7.258;2022-09-03T05:11:07;16.00;91.80
23137;DHT22;11737;50.558;7.258;2022-09-03T05:13:35;16.10;91.90
23137;DHT22;11737;50.558;7.258;2022-09-03T05:16:08;16.20;90.70
23137;DHT22;11737;50.558;7.258;2022-09-03T05:18:39;16.30;90.80
23137;DHT22;11737;50.558;7.258;2022-09-03T05:21:13;16.40;91.20
23137;DHT22;11737;50.558;7.258;2022-09-03T05:23:43;16.40;91.40
23137;DHT22;11737;50.558;7.258;2022-09-03T05:26:14;16.40;91.70
23137;DHT22;11737;50.558;7.258;2022-09-03T05:28:43;16.40;91.80
23137;DHT22;11737;50.558;7.258;2022-09-03T05:31:13;16.50;91.90
23137;DHT22;11737;50.558;7.258;2022-09-03T05:33:51;16.50;91.90
23137;DHT22;11737;50.558;7.258;2022-09-03T05:36:17;16.50;91.80
23137;DHT22;11737;50.558;7.258;2022-09-03T05:38:45;16.50;92.00
23137;DHT22;11737;50.558;7.258;2022-09-03T05:41:15;16.50;92.00
23137;DHT22;11737;50.558;7.258;2022-09-03T05:43:43;16.50;91.80
23137;DHT22;11737;50.558;7.258;2022-09-03T05:46:14;16.50;91.10
23137;DHT22;11737;50.558;7.258;2022-09-03T05:48:43;16.50;91.90
23137;DHT22;11737;50.558;7.258;2022-09-03T05:51:13;16.50;92.10
23137;DHT22;11737;50.558;7.258;2022-09-03T05:53:46;16.50;92.00
23137;DHT22;11737;50.558;7.258;2022-09-03T05:56:17;16.60;91.90
23137;DHT22;11737;50.558;7.258;2022-09-03T05:58:48;16.70;91.90
23137;DHT22;11737;50.558;7.258;2022-09-03T06:01:18;16.90;91.60
23137;DHT22;11737;50.558;7.258;2022-09-03T06:03:51;17.10;91.60
23137;DHT22;11737;50.558;7.258;2022-09-03T06:06:16;17.20;91.20
23137;DHT22;11737;50.558;7.258;2022-09-03T06:08:44;17.30;90.90
23137;DHT22;11737;50.558;7.258;2022-09-03T06:11:11;17.50;90.80
23137;DHT22;11737;50.558;7.258;2022-09-03T06:13:39;17.60;90.80
23137;DHT22;11737;50.558;7.258;2022-09-03T06:16:08;17.80;90.30
23137;DHT22;11737;50.558;7.258;2022-09-03T06:18:35;17.90;90.30
23137;DHT22;11737;50.558;7.258;2022-09-03T06:21:05;18.00;90.00
23137;DHT22;11737;50.558;7.258;2022-09-03T06:23:34;18.10;89.30
23137;DHT22;11737;50.558;7.258;2022-09-03T06:26:10;18.20;88.60
23137;DHT22;11737;50.558;7.258;2022-09-03T06:28:40;18.30;88.60
23137;DHT22;11737;50.558;7.258;2022-09-03T06:31:12;18.30;88.10
23137;DHT22;11737;50.558;7.258;2022-09-03T06:33:41;18.40;87.30
23137;DHT22;11737;50.558;7.258;2022-09-03T06:36:11;18.50;87.20
23137;DHT22;11737;50.558;7.258;2022-09-03T06:39:02;18.50;86.70
23137;DHT22;11737;50.558;7.258;2022-09-03T06:41:32;18.60;86.70
23137;DHT22;11737;50.558;7.258;2022-09-03T06:44:05;18.60;87.50
23137;DHT22;11737;50.558;7.258;2022-09-03T06:46:35;18.70;86.70
23137;DHT22;11737;50.558;7.258;2022-09-03T06:49:04;18.70;86.80
23137;DHT22;11737;50.558;7.258;2022-09-03T06:51:34;18.70;86.60
23137;DHT22;11737;50.558;7.258;2022-09-03T06:54:05;18.80;86.60
23137;DHT22;11737;50.558;7.258;2022-09-03T06:56:34;18.90;86.40
23137;DHT22;11737;50.558;7.258;2022-09-03T06:59:10;18.90;85.90
23137;DHT22;11737;50.558;7.258;2022-09-03T07:01:38;19.10;85.60
23137;DHT22;11737;50.558;7.258;2022-09-03T07:04:08;19.20;84.80
23137;DHT22;11737;50.558;7.258;2022-09-03T07:06:38;19.30;84.40
23137;DHT22;11737;50.558;7.258;2022-09-03T07:09:08;19.40;83.90
23137;DHT22;11737;50.558;7.258;2022-09-03T07:11:37;19.40;82.40
23137;DHT22;11737;50.558;7.258;2022-09-03T07:14:06;19.50;81.50
23137;DHT22;11737;50.558;7.258;2022-09-03T07:16:35;19.60;81.30
23137;DHT22;11737;50.558;7.258;2022-09-03T07:19:06;19.60;82.00
23137;DHT22;11737;50.558;7.258;2022-09-03T07:21:35;19.50;81.80
23137;DHT22;11737;50.558;7.258;2022-09-03T07:24:04;19.40;82.40
23137;DHT22;11737;50.558;7.258;2022-09-03T07:26:37;19.30;83.60
23137;DHT22;11737;50.558;7.258;2022-09-03T07:29:06;19.20;85.40
23137;DHT22;11737;50.558;7.258;2022-09-03T07:31:37;19.10;85.50
23137;DHT22;11737;50.558;7.258;2022-09-03T07:34:07;19.00;87.50
23137;DHT22;11737;50.558;7.258;2022-09-03T07:36:42;19.00;88.80
23137;DHT22;11737;50.558;7.258;2022-09-03T07:39:08;18.90;90.20
23137;DHT22;11737;50.558;7.258;2022-09-03T07:41:37;18.90;90.70
23137;DHT22;11737;50.558;7.258;2022-09-03T07:44:08;19.00;91.10
23137;DHT22;11737;50.558;7.258;2022-09-03T07:46:37;19.10;91.60
23137;DHT22;11737;50.558;7.258;2022-09-03T07:49:06;19.10;91.90
23137;DHT22;11737;50.558;7.258;2022-09-03T07:51:35;19.30;92.10
23137;DHT22;11737;50.558;7.258;2022-09-03T07:54:07;19.40;91.80
23137;DHT22;11737;50.558;7.258;2022-09-03T07:56:34;19.50;92.20
23137;DHT22;11737;50.558;7.258;2022-09-03T07:59:02;19.60;92.20
23137;DHT22;11737;50.558;7.258;2022-09-03T08:01:31;19.70;92.10
23137;DHT22;11737;50.558;7.258;2022-09-03T08:04:00;19.80;91.90
23137;DHT22;11737;50.558;7.258;2022-09-03T08:06:31;19.90;91.70
23137;DHT22;11737;50.558;7.258;2022-09-03T08:09:02;20.00;91.60
23137;DHT22;11737;50.558;7.258;2022-09-03T08:11:30;20.10;91.60
23137;DHT22;11737;50.558;7.258;2022-09-03T08:14:00;20.30;91.70
23137;DHT22;11737;50.558;7.258;2022-09-03T08:16:29;20.40;91.60
23137;DHT22;11737;50.558;7.258;2022-09-03T08:18:58;20.60;91.00
23137;DHT22;11737;50.558;7.258;2022-09-03T08:21:26;20.80;90.90
23137;DHT22;11737;50.558;7.258;2022-09-03T08:23:55;20.90;90.50
23137;DHT22;11737;50.558;7.258;2022-09-03T08:26:34;21.10;90.30
23137;DHT22;11737;50.558;7.258;2022-09-03T08:29:03;21.30;90.20
23137;DHT22;11737;50.558;7.258;2022-09-03T08:31:32;21.50;90.20
23137;DHT22;11737;50.558;7.258;2022-09-03T08:34:02;21.70;89.70
23137;DHT22;11737;50.558;7.258;2022-09-03T08:36:34;21.90;88.60
23137;DHT22;11737;50.558;7.258;2022-09-03T08:39:04;22.00;86.90
23137;DHT22;11737;50.558;7.258;2022-09-03T08:41:47;22.00;88.00
23137;DHT22;11737;50.558;7.258;2022-09-03T08:44:48;22.10;87.40
23137;DHT22;11737;50.558;7.258;2022-09-03T08:47:36;22.20;86.80
23137;DHT22;11737;50.558;7.258;2022-09-03T08:50:07;22.20;88.10
23137;DHT22;11737;50.558;7.258;2022-09-03T08:52:38;22.30;87.70
23137;DHT22;11737;50.558;7.258;2022-09-03T08:57:47;22.50;86.50
23137;DHT22;11737;50.558;7.258;2022-09-03T09:00:17;22.60;86.30
23137;DHT22;11737;50.558;7.258;2022-09-03T09:05:39;22.80;85.00
23137;DHT22;11737;50.558;7.258;2022-09-03T09:08:11;22.90;84.40
23137;DHT22;11737;50.558;7.258;2022-09-03T09:13:32;23.20;83.90
23137;DHT22;11737;50.558;7.258;2022-09-03T09:16:11;23.40;84.10
23137;DHT22;11737;50.558;7.258;2022-09-03T09:19:08;23.60;83.20
23137;DHT22;11737;50.558;7.258;2022-09-03T09:21:35;23.80;82.70
23137;DHT22;11737;50.558;7.258;2022-09-03T09:24:03;24.00;82.40
23137;DHT22;11737;50.558;7.258;2022-09-03T09:26:32;24.10;81.00
23137;DHT22;11737;50.558;7.258;2022-09-03T09:29:06;24.20;80.40
23137;DHT22;11737;50.558;7.258;2022-09-03T09:31:37;24.20;79.70
23137;DHT22;11737;50.558;7.258;2022-09-03T09:34:06;24.40;79.30
23137;DHT22;11737;50.558;7.258;2022-09-03T09:36:44;24.40;80.70
23137;DHT22;11737;50.558;7.258;2022-09-03T09:39:10;24.70;80.00
23137;DHT22;11737;50.558;7.258;2022-09-03T09:41:40;24.90;80.00
23137;DHT22;11737;50.558;7.258;2022-09-03T09:44:20;25.20;78.80
23137;DHT22;11737;50.558;7.258;2022-09-03T09:46:42;25.30;77.60
23137;DHT22;11737;50.558;7.258;2022-09-03T09:49:33;25.20;77.20
23137;DHT22;11737;50.558;7.258;2022-09-03T09:52:10;25.20;76.10
23137;DHT22;11737;50.558;7.258;2022-09-03T09:54:41;25.00;76.20
23137;DHT22;11737;50.558;7.258;2022-09-03T09:57:17;25.00;76.30
23137;DHT22;11737;50.558;7.258;2022-09-03T09:59:45;25.20;76.70
23137;DHT22;11737;50.558;7.258;2022-09-03T10:02:24;25.50;75.80
23137;DHT22;11737;50.558;7.258;2022-09-03T10:05:00;25.70;75.20
23137;DHT22;11737;50.558;7.258;2022-09-03T10:07:29;25.90;73.50
23137;DHT22;11737;50.558;7.258;2022-09-03T10:15:27;25.90;73.20
23137;DHT22;11737;50.558;7.258;2022-09-03T10:18:15;26.00;73.80
23137;DHT22;11737;50.558;7.258;2022-09-03T10:21:14;26.20;73.10
23137;DHT22;11737;50.558;7.258;2022-09-03T10:24:14;26.20;71.70
23137;DHT22;11737;50.558;7.258;2022-09-03T10:26:43;26.30;72.10
23137;DHT22;11737;50.558;7.258;2022-09-03T10:29:17;26.40;71.70
23137;DHT22;11737;50.558;7.258;2022-09-03T10:34:51;26.40;70.60
23137;DHT22;11737;50.558;7.258;2022-09-03T10:42:59;26.30;71.20
23137;DHT22;11737;50.558;7.258;2022-09-03T10:51:27;26.20;71.40
23137;DHT22;11737;50.558;7.258;2022-09-03T10:57:14;26.20;71.70
23137;DHT22;11737;50.558;7.258;2022-09-03T10:59:44;26.40;72.10
23137;DHT22;11737;50.558;7.258;2022-09-03T11:05:20;27.00;70.50
23137;DHT22;11737;50.558;7.258;2022-09-03T11:08:00;27.10;70.10
23137;DHT22;11737;50.558;7.258;2022-09-03T11:10:29;27.10;69.90
23137;DHT22;11737;50.558;7.258;2022-09-03T11:13:17;27.10;69.60
23137;DHT22;11737;50.558;7.258;2022-09-03T11:16:07;27.20;70.00
23137;DHT22;11737;50.558;7.258;2022-09-03T11:18:42;27.30;69.20
23137;DHT22;11737;50.558;7.258;2022-09-03T11:21:11;27.40;68.90
23137;DHT22;11737;50.558;7.258;2022-09-03T11:23:44;27.50;68.80
23137;DHT22;11737;50.558;7.258;2022-09-03T11:26:16;27.50;68.30
23137;DHT22;11737;50.558;7.258;2022-09-03T11:32:03;27.50;68.80
23137;DHT22;11737;50.558;7.258;2022-09-03T11:34:53;27.70;67.60
23137;DHT22;11737;50.558;7.258;2022-09-03T11:40:14;27.90;65.40
23137;DHT22;11737;50.558;7.258;2022-09-03T11:42:44;28.00;67.30
23137;DHT22;11737;50.558;7.258;2022-09-03T11:47:53;27.90;66.40
23137;DHT22;11737;50.558;7.258;2022-09-03T11:50:26;27.70;66.10
23137;DHT22;11737;50.558;7.258;2022-09-03T11:56:00;27.30;65.60
23137;DHT22;11737;50.558;7.258;2022-09-03T11:58:34;27.10;67.10
23137;DHT22;11737;50.558;7.258;2022-09-03T12:01:06;27.10;66.80
23137;DHT22;11737;50.558;7.258;2022-09-03T12:03:44;27.20;67.50
23137;DHT22;11737;50.558;7.258;2022-09-03T12:09:16;27.50;67.50
23137;DHT22;11737;50.558;7.258;2022-09-03T12:14:49;27.40;66.80
23137;DHT22;11737;50.558;7.258;2022-09-03T12:17:30;27.30;67.30
23137;DHT22;11737;50.558;7.258;2022-09-03T12:19:58;27.30;65.70
23137;DHT22;11737;50.558;7.258;2022-09-03T12:22:28;27.40;66.60
23137;DHT22;11737;50.558;7.258;2022-09-03T12:25:11;27.40;66.30
23137;DHT22;11737;50.558;7.258;2022-09-03T12:27:42;27.50;67.30
23137;DHT22;11737;50.558;7.258;2022-09-03T12:30:17;27.60;67.10
23137;DHT22;11737;50.558;7.258;2022-09-03T12:32:46;27.70;66.00
23137;DHT22;11737;50.558;7.258;2022-09-03T12:35:18;27.70;65.60
23137;DHT22;11737;50.558;7.258;2022-09-03T12:37:46;27.90;66.10
23137;DHT22;11737;50.558;7.258;2022-09-03T12:40:17;27.90;65.40
23137;DHT22;11737;50.558;7.258;2022-09-03T12:42:45;27.90;65.80
23137;DHT22;11737;50.558;7.258;2022-09-03T12:45:17;27.90;64.00
23137;DHT22;11737;50.558;7.258;2022-09-03T12:47:43;28.10;64.80
23137;DHT22;11737;50.558;7.258;2022-09-03T12:50:13;28.20;65.00
23137;DHT22;11737;50.558;7.258;2022-09-03T12:53:04;28.30;65.70
23137;DHT22;11737;50.558;7.258;2022-09-03T12:55:31;28.50;65.90
23137;DHT22;11737;50.558;7.258;2022-09-03T12:58:06;28.80;62.40
23137;DHT22;11737;50.558;7.258;2022-09-03T13:00:36;28.90;65.00
23137;DHT22;11737;50.558;7.258;2022-09-03T13:03:22;29.00;64.00
23137;DHT22;11737;50.558;7.258;2022-09-03T13:05:57;29.20;64.40
23137;DHT22;11737;50.558;7.258;2022-09-03T13:08:25;29.20;63.90
23137;DHT22;11737;50.558;7.258;2022-09-03T13:10:54;29.20;63.50
23137;DHT22;11737;50.558;7.258;2022-09-03T13:13:27;29.10;63.10
23137;DHT22;11737;50.558;7.258;2022-09-03T13:19:05;29.30;61.90
23137;DHT22;11737;50.558;7.258;2022-09-03T13:24:41;29.70;63.00
23137;DHT22;11737;50.558;7.258;2022-09-03T13:27:21;29.80;61.70
23137;DHT22;11737;50.558;7.258;2022-09-03T13:30:13;29.70;62.10
23137;DHT22;11737;50.558;7.258;2022-09-03T13:43:19;29.70;61.00
23137;DHT22;11737;50.558;7.258;2022-09-03T13:45:55;29.80;61.00
23137;DHT22;11737;50.558;7.258;2022-09-03T13:48:27;30.00;61.80
23137;DHT22;11737;50.558;7.258;2022-09-03T13:54:13;30.50;60.30
23137;DHT22;11737;50.558;7.258;2022-09-03T13:57:16;30.70;59.40
23137;DHT22;11737;50.558;7.258;2022-09-03T14:03:02;30.70;59.00
23137;DHT22;11737;50.558;7.258;2022-09-03T14:17:05;30.70;59.60
23137;DHT22;11737;50.558;7.258;2022-09-03T14:30:57;32.10;58.80
23137;DHT22;11737;50.558;7.258;2022-09-03T14:33:35;32.40;58.30
23137;DHT22;11737;50.558;7.258;2022-09-03T14:36:11;33.00;57.10
23137;DHT22;11737;50.558;7.258;2022-09-03T14:38:51;33.30;55.60
23137;DHT22;11737;50.558;7.258;2022-09-03T14:50:12;31.60;55.50
23137;DHT22;11737;50.558;7.258;2022-09-03T15:00:51;29.50;58.50
23137;DHT22;11737;50.558;7.258;2022-09-03T15:06:39;28.70;59.30
23137;DHT22;11737;50.558;7.258;2022-09-03T15:09:24;28.40;60.70
23137;DHT22;11737;50.558;7.258;2022-09-03T15:12:16;28.10;60.00
23137;DHT22;11737;50.558;7.258;2022-09-03T15:14:53;27.90;61.30
23137;DHT22;11737;50.558;7.258;2022-09-03T15:23:04;27.20;63.40
23137;DHT22;11737;50.558;7.258;2022-09-03T15:31:15;25.70;67.40
23137;DHT22;11737;50.558;7.258;2022-09-03T15:36:32;24.80;69.50
23137;DHT22;11737;50.558;7.258;2022-09-03T15:38:59;24.60;70.80
23137;DHT22;11737;50.558;7.258;2022-09-03T15:41:40;24.40;75.00
23137;DHT22;11737;50.558;7.258;2022-09-03T15:44:17;24.20;73.80
23137;DHT22;11737;50.558;7.258;2022-09-03T15:46:57;23.80;77.90
23137;DHT22;11737;50.558;7.258;2022-09-03T15:52:31;23.20;81.00
23137;DHT22;11737;50.558;7.258;2022-09-03T16:00:12;22.00;90.10
23137;DHT22;11737;50.558;7.258;2022-09-03T16:03:09;21.70;90.50
23137;DHT22;11737;50.558;7.258;2022-09-03T16:11:28;21.20;93.50
23137;DHT22;11737;50.558;7.258;2022-09-03T16:14:17;21.20;94.60
23137;DHT22;11737;50.558;7.258;2022-09-03T16:17:04;21.20;95.50
23137;DHT22;11737;50.558;7.258;2022-09-03T16:20:33;21.20;96.30
23137;DHT22;11737;50.558;7.258;2022-09-03T16:22:27;21.20;97.30
23137;DHT22;11737;50.558;7.258;2022-09-03T16:25:06;21.10;98.30
23137;DHT22;11737;50.558;7.258;2022-09-03T16:27:41;21.10;99.20
23137;DHT22;11737;50.558;7.258;2022-09-03T16:40:49;21.10;99.90
23137;DHT22;11737;50.558;7.258;2022-09-03T16:54:59;21.20;99.90
23137;DHT22;11737;50.558;7.258;2022-09-03T17:00:16;21.20;99.90
23137;DHT22;11737;50.558;7.258;2022-09-03T17:24:39;22.70;99.90
23137;DHT22;11737;50.558;7.258;2022-09-03T17:27:25;22.60;99.90
23137;DHT22;11737;50.558;7.258;2022-09-03T17:30:06;22.60;99.90
23137;DHT22;11737;50.558;7.258;2022-09-03T17:32:44;22.50;99.90
23137;DHT22;11737;50.558;7.258;2022-09-03T17:35:33;22.50;99.90
23137;DHT22;11737;50.558;7.258;2022-09-03T17:40:55;22.40;99.90
23137;DHT22;11737;50.558;7.258;2022-09-03T17:43:34;22.30;99.90
23137;DHT22;11737;50.558;7.258;2022-09-03T17:46:07;22.20;99.90
23137;DHT22;11737;50.558;7.258;2022-09-03T17:48:51;22.00;99.90
23137;DHT22;11737;50.558;7.258;2022-09-03T17:51:46;22.00;99.90
23137;DHT22;11737;50.558;7.258;2022-09-03T17:54:20;21.80;99.90
23137;DHT22;11737;50.558;7.258;2022-09-03T17:59:53;21.60;99.90
23137;DHT22;11737;50.558;7.258;2022-09-03T18:02:38;21.40;99.90
23137;DHT22;11737;50.558;7.258;2022-09-03T18:05:16;21.30;99.90
23137;DHT22;11737;50.558;7.258;2022-09-03T18:07:51;21.20;99.90
23137;DHT22;11737;50.558;7.258;2022-09-03T18:10:42;21.10;99.90
23137;DHT22;11737;50.558;7.258;2022-09-03T18:16:15;20.80;99.90
23137;DHT22;11737;50.558;7.258;2022-09-03T18:18:45;20.60;99.90
23137;DHT22;11737;50.558;7.258;2022-09-03T18:21:21;20.50;99.90
23137;DHT22;11737;50.558;7.258;2022-09-03T18:24:18;20.40;99.90
23137;DHT22;11737;50.558;7.258;2022-09-03T18:27:08;20.30;99.90
23137;DHT22;11737;50.558;7.258;2022-09-03T18:30:03;20.20;99.90
23137;DHT22;11737;50.558;7.258;2022-09-03T18:32:48;20.10;99.90
23137;DHT22;11737;50.558;7.258;2022-09-03T18:35:34;20.00;99.90
23137;DHT22;11737;50.558;7.258;2022-09-03T18:38:28;19.80;99.90
23137;DHT22;11737;50.558;7.258;2022-09-03T18:47:49;19.40;99.90
23137;DHT22;11737;50.558;7.258;2022-09-03T18:50:49;19.40;99.90
23137;DHT22;11737;50.558;7.258;2022-09-03T18:53:44;19.40;99.90
23137;DHT22;11737;50.558;7.258;2022-09-03T18:56:47;19.30;99.90
23137;DHT22;11737;50.558;7.258;2022-09-03T18:59:51;19.20;99.90
23137;DHT22;11737;50.558;7.258;2022-09-03T19:09:04;18.90;99.90
23137;DHT22;11737;50.558;7.258;2022-09-03T19:11:57;18.80;99.90
23137;DHT22;11737;50.558;7.258;2022-09-03T19:15:04;18.70;99.90
23137;DHT22;11737;50.558;7.258;2022-09-03T19:21:05;18.60;99.90
23137;DHT22;11737;50.558;7.258;2022-09-03T19:23:50;18.50;99.90
23137;DHT22;11737;50.558;7.258;2022-09-03T19:30:00;18.50;99.90
23137;DHT22;11737;50.558;7.258;2022-09-03T19:36:19;18.40;99.90
23137;DHT22;11737;50.558;7.258;2022-09-03T19:45:20;18.30;99.90
23137;DHT22;11737;50.558;7.258;2022-09-03T19:48:07;18.20;99.90
23137;DHT22;11737;50.558;7.258;2022-09-03T19:50:59;18.10;99.90
23137;DHT22;11737;50.558;7.258;2022-09-03T19:53:40;18.00;99.90
23137;DHT22;11737;50.558;7.258;2022-09-03T19:56:27;18.00;99.90
23137;DHT22;11737;50.558;7.258;2022-09-03T19:59:22;17.90;99.90
23137;DHT22;11737;50.558;7.258;2022-09-03T20:02:04;18.00;99.90
23137;DHT22;11737;50.558;7.258;2022-09-03T20:04:59;18.00;99.90
23137;DHT22;11737;50.558;7.258;2022-09-03T20:07:49;18.00;99.90
23137;DHT22;11737;50.558;7.258;2022-09-03T20:10:36;18.00;99.90
23137;DHT22;11737;50.558;7.258;2022-09-03T20:13:12;18.00;99.90
23137;DHT22;11737;50.558;7.258;2022-09-03T20:18:51;17.90;99.90
23137;DHT22;11737;50.558;7.258;2022-09-03T20:21:22;17.90;99.90
23137;DHT22;11737;50.558;7.258;2022-09-03T20:27:44;17.80;99.90
23137;DHT22;11737;50.558;7.258;2022-09-03T20:29:46;17.90;99.90
23137;DHT22;11737;50.558;7.258;2022-09-03T20:32:29;17.80;99.90
23137;DHT22;11737;50.558;7.258;2022-09-03T20:35:22;17.80;99.90
23137;DHT22;11737;50.558;7.258;2022-09-03T20:38:06;17.70;99.90
23137;DHT22;11737;50.558;7.258;2022-09-03T20:40:45;17.70;99.90
23137;DHT22;11737;50.558;7.258;2022-09-03T20:46:08;17.60;99.90
23137;DHT22;11737;50.558;7.258;2022-09-03T20:52:11;17.60;99.90
23137;DHT22;11737;50.558;7.258;2022-09-03T20:54:19;17.50;99.90
23137;DHT22;11737;50.558;7.258;2022-09-03T20:57:38;17.50;99.90
23137;DHT22;11737;50.558;7.258;2022-09-03T21:13:16;17.30;99.90
23137;DHT22;11737;50.558;7.258;2022-09-03T21:16:08;17.30;99.90
23137;DHT22;11737;50.558;7.258;2022-09-03T21:18:39;17.30;99.90
23137;DHT22;11737;50.558;7.258;2022-09-03T21:21:15;17.40;99.90